createdAt,value
2022-10-08T00:00:57.474Z,67.18
2022-10-08T00:03:27.498Z,67.11
2022-10-08T00:06:18.438Z,67.07
2022-10-08T00:08:49.413Z,66.64
2022-10-08T00:11:20.111Z,66.67
2022-10-08T00:13:48.491Z,66.54
2022-10-08T00:16:32.242Z,66.66
2022-10-08T00:19:01.999Z,66.61
2022-10-08T00:21:31.467Z,66.69
2022-10-08T00:23:58.944Z,66.92
2022-10-08T00:26:27.326Z,66.88
2022-10-08T00:28:56.558Z,66.94
2022-10-08T00:31:26.434Z,67.27
2022-10-08T00:33:55.625Z,67.37
2022-10-08T00:36:24.206Z,67.54
2022-10-08T00:38:58.173Z,67.87
2022-10-08T00:41:26.640Z,67.75
2022-10-08T00:43:56.453Z,67.65
2022-10-08T00:46:41.478Z,67.76
2022-10-08T00:49:11.482Z,68.16
2022-10-08T00:51:50.970Z,68.51
2022-10-08T00:54:19.630Z,68.21
2022-10-08T00:56:50.361Z,68.63
2022-10-08T00:59:17.395Z,68.57
2022-10-08T01:01:44.659Z,68.90
2022-10-08T01:04:13.364Z,69.15
2022-10-08T01:06:57.952Z,69.33
2022-10-08T01:09:35.456Z,69.42
2022-10-08T01:12:11.074Z,69.33
2022-10-08T01:14:57.702Z,69.71
2022-10-08T01:17:34.774Z,70.34
2022-10-08T01:20:07.281Z,70.59
2022-10-08T01:22:42.642Z,70.31
2022-10-08T01:25:33.851Z,70.67
2022-10-08T01:28:28.391Z,70.94
2022-10-08T01:31:18.068Z,71.00
2022-10-08T01:33:47.459Z,70.56
2022-10-08T01:36:17.935Z,70.66
2022-10-08T01:38:51.310Z,70.69
2022-10-08T01:41:20.193Z,70.43
2022-10-08T01:43:52.976Z,70.71
2022-10-08T01:46:25.230Z,70.26
2022-10-08T01:48:53.758Z,70.13
2022-10-08T01:51:33.056Z,70.57
2022-10-08T01:54:02.951Z,70.32
2022-10-08T01:56:33.267Z,70.13
2022-10-08T01:59:02.907Z,69.29
2022-10-08T02:01:43.602Z,70.84
2022-10-08T02:04:28.868Z,70.48
2022-10-08T02:06:59.224Z,70.81
2022-10-08T02:09:26.895Z,70.45
2022-10-08T02:11:54.107Z,70.33
2022-10-08T02:14:25.802Z,70.29
2022-10-08T02:17:16.462Z,70.37
2022-10-08T02:20:03.596Z,70.24
2022-10-08T02:22:37.712Z,70.00
2022-10-08T02:25:22.156Z,69.89
2022-10-08T02:28:11.546Z,69.68
2022-10-08T02:30:48.640Z,69.59
2022-10-08T02:33:22.447Z,69.54
2022-10-08T02:35:57.054Z,69.75
2022-10-08T02:38:30.205Z,69.44
2022-10-08T02:40:59.794Z,69.23
2022-10-08T02:43:31.510Z,69.38
2022-10-08T02:46:10.813Z,69.51
2022-10-08T02:48:42.427Z,69.39
2022-10-08T02:51:14.098Z,69.45
2022-10-08T02:53:41.642Z,69.33
2022-10-08T02:56:16.880Z,69.50
2022-10-08T02:58:43.979Z,69.29
2022-10-08T03:01:26.595Z,69.65
2022-10-08T03:04:18.122Z,69.53
2022-10-08T03:06:45.600Z,69.23
2022-10-08T03:09:14.863Z,69.30
2022-10-08T03:11:41.631Z,69.14
2022-10-08T03:14:12.432Z,69.20
2022-10-08T03:16:42.069Z,69.39
2022-10-08T03:19:10.958Z,69.21
2022-10-08T03:21:39.435Z,69.31
2022-10-08T03:24:07.157Z,69.37
2022-10-08T03:26:33.579Z,69.25
2022-10-08T03:29:00.034Z,69.27
2022-10-08T03:31:26.450Z,69.18
2022-10-08T03:33:53.922Z,69.38
2022-10-08T03:36:22.090Z,69.32
2022-10-08T03:38:49.653Z,69.32
2022-10-08T03:41:17.039Z,69.35
2022-10-08T03:43:43.781Z,69.61
2022-10-08T03:46:11.748Z,69.55
2022-10-08T03:48:38.609Z,69.68
2022-10-08T03:51:11.601Z,70.09
2022-10-08T03:53:39.705Z,70.06
2022-10-08T03:56:09.035Z,70.23
2022-10-08T03:58:35.419Z,70.17
2022-10-08T04:01:05.346Z,70.45
2022-10-08T04:03:32.654Z,70.41
2022-10-08T04:05:59.750Z,70.86
2022-10-08T04:08:26.420Z,70.75
2022-10-08T04:10:53.318Z,71.04
2022-10-08T04:13:20.371Z,70.96
2022-10-08T04:15:48.274Z,71.23
2022-10-08T04:18:14.871Z,71.29
2022-10-08T04:20:42.292Z,71.46
2022-10-08T04:23:09.451Z,71.27
2022-10-08T04:25:36.439Z,71.33
2022-10-08T04:28:04.285Z,71.59
2022-10-08T04:30:31.866Z,71.69
2022-10-08T04:32:58.865Z,71.59
2022-10-08T04:35:25.627Z,71.49
2022-10-08T04:37:52.020Z,71.63
2022-10-08T04:40:18.405Z,72.18
2022-10-08T04:42:45.338Z,71.95
2022-10-08T04:45:11.883Z,72.60
2022-10-08T04:47:38.400Z,72.56
2022-10-08T04:50:05.249Z,72.60
2022-10-08T04:52:32.058Z,72.61
2022-10-08T04:54:58.415Z,72.63
2022-10-08T04:57:24.780Z,72.83
2022-10-08T05:00:13.600Z,72.76
2022-10-08T05:02:37.732Z,72.99
2022-10-08T05:05:04.510Z,72.81
2022-10-08T05:07:30.952Z,72.82
2022-10-08T05:09:57.345Z,72.89
2022-10-08T05:12:23.837Z,73.00
2022-10-08T05:14:50.195Z,73.18
2022-10-08T05:17:16.584Z,73.04
2022-10-08T05:19:43.043Z,73.42
2022-10-08T05:22:09.449Z,73.29
2022-10-08T05:24:35.954Z,73.56
2022-10-08T05:27:02.412Z,73.71
2022-10-08T05:29:30.348Z,73.74
2022-10-08T05:31:57.140Z,73.77
2022-10-08T05:34:23.776Z,74.00
2022-10-08T05:36:50.300Z,74.03
2022-10-08T05:39:17.251Z,74.41
2022-10-08T05:41:43.770Z,74.44
2022-10-08T05:44:11.293Z,74.43
2022-10-08T05:46:38.735Z,74.61
2022-10-08T05:49:08.170Z,75.20
2022-10-08T05:51:35.080Z,75.14
2022-10-08T05:54:01.525Z,75.03
2022-10-08T05:56:29.044Z,75.62
2022-10-08T05:58:55.788Z,75.97
2022-10-08T06:01:28.216Z,75.96
2022-10-08T06:03:57.309Z,76.60
2022-10-08T06:06:24.436Z,76.64
2022-10-08T06:08:56.568Z,77.38
2022-10-08T06:11:23.007Z,76.77
2022-10-08T06:13:53.779Z,77.65
2022-10-08T06:16:20.995Z,77.40
2022-10-08T06:18:47.592Z,77.61
2022-10-08T06:21:19.445Z,77.58
2022-10-08T06:24:00.018Z,77.89
2022-10-08T06:26:35.106Z,77.50
2022-10-08T06:29:02.885Z,77.52
2022-10-08T06:31:29.332Z,77.51
2022-10-08T06:34:08.361Z,77.63
2022-10-08T06:36:41.469Z,77.46
2022-10-08T06:39:11.653Z,77.72
2022-10-08T06:41:38.443Z,77.29
2022-10-08T06:44:07.275Z,77.24
2022-10-08T06:46:34.459Z,77.32
2022-10-08T06:49:05.949Z,77.23
2022-10-08T06:51:33.118Z,77.06
2022-10-08T06:54:07.827Z,77.11
2022-10-08T06:56:36.052Z,76.78
2022-10-08T06:59:02.838Z,77.33
2022-10-08T07:01:33.372Z,77.49
2022-10-08T07:04:05.430Z,78.13
2022-10-08T07:06:34.870Z,78.26
2022-10-08T07:09:02.356Z,78.95
2022-10-08T07:11:30.121Z,78.85
2022-10-08T07:13:56.967Z,79.05
2022-10-08T07:16:25.720Z,79.17
2022-10-08T07:18:53.726Z,79.06
2022-10-08T07:21:21.830Z,79.05
2022-10-08T07:23:48.783Z,79.03
2022-10-08T07:26:20.725Z,79.56
2022-10-08T07:28:53.554Z,79.86
2022-10-08T07:31:28.023Z,79.27
2022-10-08T07:33:54.849Z,79.01
2022-10-08T07:36:22.709Z,79.11
2022-10-08T07:38:56.542Z,78.78
2022-10-08T07:41:23.280Z,78.23
2022-10-08T07:43:52.373Z,78.23
2022-10-08T07:46:18.860Z,78.43
2022-10-08T07:48:45.574Z,77.74
2022-10-08T07:51:14.498Z,77.68
2022-10-08T07:53:41.320Z,77.28
2022-10-08T07:56:09.782Z,76.96
2022-10-08T07:58:36.719Z,75.84
2022-10-08T08:01:06.332Z,75.55
2022-10-08T08:03:33.257Z,74.93
2022-10-08T08:06:09.195Z,74.57
2022-10-08T08:08:37.722Z,72.99
2022-10-08T08:11:06.531Z,72.87
2022-10-08T08:13:36.980Z,73.02
2022-10-08T08:16:07.005Z,72.71
2022-10-08T08:18:36.953Z,72.21
2022-10-08T08:21:08.978Z,72.10
2022-10-08T08:23:38.532Z,71.77
2022-10-08T08:26:10.958Z,72.18
2022-10-08T08:28:37.741Z,71.74
2022-10-08T08:31:25.495Z,71.69
2022-10-08T08:33:55.335Z,71.27
2022-10-08T08:36:25.717Z,71.06
2022-10-08T08:38:52.236Z,70.75
2022-10-08T08:41:51.092Z,71.01
2022-10-08T08:44:24.599Z,70.68
2022-10-08T08:47:17.990Z,69.94
2022-10-08T08:49:50.775Z,69.38
2022-10-08T08:52:21.376Z,69.34
2022-10-08T08:54:49.527Z,68.47
2022-10-08T08:57:23.629Z,67.85
2022-10-08T08:59:56.437Z,66.34
2022-10-08T09:02:28.514Z,64.88
2022-10-08T09:05:00.482Z,63.76
2022-10-08T09:07:33.617Z,63.77
2022-10-08T09:10:05.450Z,63.08
2022-10-08T09:12:38.856Z,63.08
2022-10-08T09:15:19.909Z,63.24
2022-10-08T09:17:50.914Z,62.55
2022-10-08T09:20:24.515Z,62.42
2022-10-08T09:22:51.969Z,62.29
2022-10-08T09:25:22.485Z,62.38
2022-10-08T09:27:55.474Z,62.39
2022-10-08T09:30:24.634Z,61.51
2022-10-08T09:32:53.182Z,61.22
2022-10-08T09:35:19.739Z,60.51
2022-10-08T09:37:48.268Z,60.08
2022-10-08T09:40:23.798Z,59.13
2022-10-08T09:43:10.974Z,56.67
2022-10-08T09:45:48.668Z,56.49
2022-10-08T09:48:33.067Z,55.77
2022-10-08T09:51:12.467Z,55.10
2022-10-08T09:53:46.205Z,54.48
2022-10-08T09:56:14.759Z,53.42
2022-10-08T09:58:52.253Z,52.40
2022-10-08T10:01:19.349Z,51.30
2022-10-08T10:04:04.348Z,52.89
2022-10-08T10:06:38.990Z,52.32
2022-10-08T10:09:11.549Z,52.36
2022-10-08T10:11:42.876Z,50.70
2022-10-08T10:14:35.013Z,50.07
2022-10-08T10:17:13.987Z,50.08
2022-10-08T10:19:50.771Z,49.19
2022-10-08T10:22:58.284Z,48.27
2022-10-08T10:25:43.392Z,47.65
2022-10-08T10:28:28.821Z,47.65
2022-10-08T10:31:06.796Z,47.09
2022-10-08T10:33:37.470Z,47.17
2022-10-08T10:36:09.409Z,46.88
2022-10-08T10:38:45.114Z,46.37
2022-10-08T10:41:14.240Z,46.36
2022-10-08T10:43:49.859Z,46.58
2022-10-08T10:46:33.660Z,46.30
2022-10-08T10:49:00.541Z,46.13
2022-10-08T10:51:29.573Z,46.26
2022-10-08T10:54:17.698Z,46.66
2022-10-08T10:57:02.434Z,46.40
2022-10-08T11:00:00.040Z,45.92
2022-10-08T11:02:40.090Z,45.54
2022-10-08T11:05:18.266Z,46.11
2022-10-08T11:08:18.445Z,45.74
2022-10-08T11:11:04.123Z,50.01
2022-10-08T11:13:33.423Z,51.59
2022-10-08T11:16:02.618Z,53.82
2022-10-08T11:18:47.489Z,56.97
2022-10-08T11:21:40.037Z,60.75
2022-10-08T11:24:34.794Z,64.14
2022-10-08T11:27:21.610Z,65.11
2022-10-08T11:30:06.141Z,65.82
2022-10-08T11:32:33.909Z,68.26
2022-10-08T11:35:00.485Z,69.40
2022-10-08T11:37:38.861Z,72.40
2022-10-08T11:40:31.293Z,74.44
2022-10-08T11:43:09.825Z,75.13
2022-10-08T11:45:39.902Z,76.84
2022-10-08T11:48:32.088Z,76.91
2022-10-08T11:51:38.868Z,76.09
2022-10-08T11:54:23.177Z,77.92
2022-10-08T11:56:52.688Z,76.06
2022-10-08T11:59:41.637Z,74.97
2022-10-08T12:02:33.305Z,73.84
2022-10-08T12:05:32.807Z,73.32
2022-10-08T12:08:02.845Z,70.71
2022-10-08T12:10:38.593Z,67.56
2022-10-08T12:13:27.586Z,63.53
2022-10-08T12:15:55.373Z,62.09
2022-10-08T12:18:26.496Z,62.02
2022-10-08T12:21:17.741Z,60.45
2022-10-08T12:23:44.823Z,57.59
2022-10-08T12:26:13.993Z,56.60
2022-10-08T12:28:47.288Z,57.96
2022-10-08T12:31:28.197Z,57.35
2022-10-08T12:34:10.321Z,56.77
2022-10-08T12:37:01.949Z,57.23
2022-10-08T12:39:42.560Z,57.86
2022-10-08T12:42:21.214Z,57.29
2022-10-08T12:45:16.597Z,57.02
2022-10-08T12:48:14.884Z,57.77
2022-10-08T12:50:58.348Z,56.40
2022-10-08T12:53:25.526Z,55.87
2022-10-08T12:55:56.684Z,54.16
2022-10-08T12:58:26.540Z,53.40
2022-10-08T13:00:57.247Z,52.02
2022-10-08T13:03:25.389Z,52.06
2022-10-08T13:05:56.518Z,51.65
2022-10-08T13:08:38.656Z,51.37
2022-10-08T13:11:09.429Z,50.32
2022-10-08T13:13:38.766Z,50.34
2022-10-08T13:16:07.971Z,51.21
2022-10-08T13:18:36.415Z,51.31
2022-10-08T13:21:22.511Z,52.86
2022-10-08T13:23:48.927Z,52.50
2022-10-08T13:26:42.527Z,54.22
2022-10-08T13:29:23.975Z,55.35
2022-10-08T13:32:14.953Z,56.90
2022-10-08T13:34:44.852Z,58.07
2022-10-08T13:37:15.599Z,60.10
2022-10-08T13:39:49.771Z,60.51
2022-10-08T13:42:18.928Z,61.75
2022-10-08T13:44:45.460Z,62.21
2022-10-08T13:47:13.523Z,63.01
2022-10-08T13:49:40.751Z,62.08
2022-10-08T13:52:13.689Z,63.59
2022-10-08T13:54:42.336Z,64.29
2022-10-08T13:57:09.924Z,64.71
2022-10-08T13:59:36.395Z,66.33
2022-10-08T14:02:02.961Z,65.24
2022-10-08T14:04:29.528Z,63.20
2022-10-08T14:06:57.700Z,62.08
2022-10-08T14:09:26.815Z,61.50
2022-10-08T14:11:56.662Z,60.41
2022-10-08T14:14:24.179Z,60.04
2022-10-08T14:16:51.647Z,60.48
2022-10-08T14:19:20.513Z,60.78
2022-10-08T14:21:49.206Z,60.58
2022-10-08T14:24:16.002Z,61.08
2022-10-08T14:26:42.463Z,61.40
2022-10-08T14:29:08.868Z,62.05
2022-10-08T14:31:35.421Z,61.43
2022-10-08T14:34:02.176Z,61.44
2022-10-08T14:36:35.210Z,60.83
2022-10-08T14:39:01.658Z,59.04
2022-10-08T14:41:28.915Z,57.73
2022-10-08T14:43:55.334Z,56.54
2022-10-08T14:46:21.837Z,55.05
2022-10-08T14:48:48.257Z,54.48
2022-10-08T14:51:17.379Z,55.10
2022-10-08T14:54:10.346Z,54.33
2022-10-08T14:59:41.681Z,53.12
2022-10-08T15:02:27.592Z,52.39
2022-10-08T15:04:56.823Z,51.85
2022-10-08T15:07:26.255Z,51.62
2022-10-08T15:09:56.284Z,50.97
2022-10-08T15:12:32.064Z,50.04
2022-10-08T15:15:11.821Z,51.50
2022-10-08T15:17:47.460Z,49.77
2022-10-08T15:20:22.598Z,49.89
2022-10-08T15:23:03.485Z,51.55
2022-10-08T15:25:37.177Z,50.73
2022-10-08T15:28:15.853Z,49.83
2022-10-08T15:30:51.774Z,52.42
2022-10-08T15:33:26.434Z,55.35
2022-10-08T15:35:58.292Z,55.64
2022-10-08T15:38:37.775Z,56.94
2022-10-08T15:41:11.137Z,57.82
2022-10-08T15:43:41.400Z,58.88
2022-10-08T15:46:19.640Z,57.59
2022-10-08T15:48:59.994Z,62.43
2022-10-08T15:51:33.325Z,60.63
2022-10-08T15:54:06.487Z,65.21
2022-10-08T15:56:41.172Z,68.05
2022-10-08T15:59:15.221Z,68.16
2022-10-08T16:01:53.465Z,70.94
2022-10-08T16:04:24.163Z,71.18
2022-10-08T16:07:03.939Z,72.85
2022-10-08T16:09:41.241Z,74.41
2022-10-08T16:12:16.059Z,74.93
2022-10-08T16:14:47.753Z,75.61
2022-10-08T16:17:20.883Z,76.04
2022-10-08T16:19:51.792Z,77.53
2022-10-08T16:22:23.303Z,77.55
2022-10-08T16:24:58.009Z,78.26
2022-10-08T16:27:35.205Z,78.49
2022-10-08T16:30:10.359Z,79.43
2022-10-08T16:32:47.939Z,79.95
2022-10-08T16:35:20.274Z,79.92
2022-10-08T16:37:52.507Z,79.79
2022-10-08T16:40:25.274Z,79.78
2022-10-08T16:42:54.445Z,79.88
2022-10-08T16:45:24.428Z,79.40
2022-10-08T16:47:56.537Z,80.02
2022-10-08T16:50:26.233Z,80.00
2022-10-08T16:53:06.464Z,80.58
2022-10-08T16:55:41.570Z,80.62
2022-10-08T16:58:24.667Z,81.21
2022-10-08T17:01:00.823Z,80.84
2022-10-08T17:03:27.329Z,81.39
2022-10-08T17:05:53.701Z,81.83
2022-10-08T17:08:20.111Z,81.49
2022-10-08T17:10:46.472Z,81.79
2022-10-08T17:13:13.501Z,81.83
2022-10-08T17:15:39.895Z,81.43
2022-10-08T17:18:06.307Z,81.66
2022-10-08T17:20:32.766Z,81.76
2022-10-08T17:22:59.140Z,81.78
2022-10-08T17:25:25.547Z,81.95
2022-10-08T17:27:51.978Z,82.02
2022-10-08T17:30:18.392Z,82.09
2022-10-08T17:32:45.082Z,82.19
2022-10-08T17:35:11.636Z,82.18
2022-10-08T17:37:38.056Z,82.61
2022-10-08T17:40:04.796Z,82.88
2022-10-08T17:42:31.309Z,83.43
2022-10-08T17:44:58.570Z,83.74
2022-10-08T17:47:29.076Z,83.80
2022-10-08T17:49:55.713Z,84.17
2022-10-08T17:52:22.062Z,84.63
2022-10-08T17:54:48.444Z,84.93
2022-10-08T17:57:14.787Z,85.33
2022-10-08T17:59:41.236Z,85.60
2022-10-08T18:02:08.546Z,85.30
2022-10-08T18:04:35.006Z,85.43
2022-10-08T18:07:03.654Z,84.90
2022-10-08T18:09:30.153Z,84.75
2022-10-08T18:11:56.541Z,84.79
2022-10-08T18:14:23.268Z,85.07
2022-10-08T18:16:50.150Z,85.04
2022-10-08T18:19:17.803Z,85.19
2022-10-08T18:21:44.243Z,85.11
2022-10-08T18:24:11.141Z,85.30
2022-10-08T18:26:37.533Z,85.45
2022-10-08T18:29:11.577Z,85.95
2022-10-08T18:31:40.055Z,85.85
2022-10-08T18:34:08.927Z,86.31
2022-10-08T18:36:37.768Z,86.28
2022-10-08T18:39:07.559Z,86.70
2022-10-08T18:41:41.132Z,87.04
2022-10-08T18:44:10.833Z,86.65
2022-10-08T18:46:38.515Z,86.68
2022-10-08T18:49:06.126Z,86.73
2022-10-08T18:51:34.063Z,86.87
2022-10-08T18:54:02.206Z,86.98
2022-10-08T18:56:35.596Z,87.29
2022-10-08T18:59:04.933Z,87.72
2022-10-08T19:01:34.289Z,87.44
2022-10-08T19:04:02.528Z,87.54
2022-10-08T19:06:32.284Z,87.59
2022-10-08T19:09:00.025Z,87.56
2022-10-08T19:11:33.073Z,87.62
2022-10-08T19:14:06.781Z,88.14
2022-10-08T19:16:36.060Z,87.66
2022-10-08T19:19:05.178Z,87.37
2022-10-08T19:21:33.558Z,87.47
2022-10-08T19:24:00.831Z,87.56
2022-10-08T19:26:28.585Z,87.54
2022-10-08T19:28:55.233Z,87.40
2022-10-08T19:31:27.778Z,87.57
2022-10-08T19:33:57.734Z,87.04
2022-10-08T19:36:25.515Z,86.52
2022-10-08T19:39:04.718Z,87.28
2022-10-08T19:41:31.995Z,86.27
2022-10-08T19:43:59.421Z,86.38
2022-10-08T19:46:27.142Z,86.25
2022-10-08T19:48:56.283Z,85.90
2022-10-08T19:51:23.648Z,85.75
2022-10-08T19:53:50.435Z,85.32
2022-10-08T19:56:20.866Z,85.65
2022-10-08T19:58:55.519Z,86.09
2022-10-08T20:01:27.647Z,86.12
2022-10-08T20:03:55.859Z,86.24
2022-10-08T20:06:25.175Z,86.42
2022-10-08T20:08:57.402Z,87.30
2022-10-08T20:11:24.176Z,86.90
2022-10-08T20:13:52.218Z,87.18
2022-10-08T20:16:21.705Z,87.83
2022-10-08T20:18:53.312Z,88.07
2022-10-08T20:21:20.867Z,88.05
2022-10-08T20:23:47.991Z,88.09
2022-10-08T20:26:20.277Z,88.83
2022-10-08T20:28:48.832Z,88.91
2022-10-08T20:31:21.624Z,89.01
2022-10-08T20:33:48.831Z,88.96
2022-10-08T20:36:17.605Z,89.05
2022-10-08T20:38:44.101Z,89.24
2022-10-08T20:41:10.941Z,89.39
2022-10-08T20:43:38.973Z,89.52
2022-10-08T20:46:08.229Z,89.47
2022-10-08T20:48:36.316Z,89.41
2022-10-08T20:51:05.556Z,89.72
2022-10-08T20:53:33.123Z,89.71
2022-10-08T20:56:11.741Z,90.22
2022-10-08T20:58:38.752Z,89.32
2022-10-08T21:01:16.847Z,89.90
2022-10-08T21:03:44.477Z,89.73
2022-10-08T21:06:14.693Z,89.91
2022-10-08T21:08:43.553Z,90.11
2022-10-08T21:11:13.139Z,90.37
2022-10-08T21:13:40.261Z,90.07
2022-10-08T21:16:09.598Z,90.24
2022-10-08T21:18:36.930Z,90.16
2022-10-08T21:21:11.839Z,90.74
2022-10-08T21:23:38.852Z,90.25
2022-10-08T21:26:07.131Z,90.47
2022-10-08T21:28:33.985Z,90.18
2022-10-08T21:31:03.955Z,90.21
2022-10-08T21:33:30.778Z,90.11
2022-10-08T21:35:58.037Z,89.35
2022-10-08T21:38:24.826Z,89.52
2022-10-08T21:40:59.695Z,90.25
2022-10-08T21:43:26.113Z,89.64
2022-10-08T21:45:55.836Z,90.12
2022-10-08T21:48:23.750Z,90.31
2022-10-08T21:51:02.208Z,90.96
2022-10-08T21:53:31.266Z,89.93
2022-10-08T21:56:03.739Z,90.59
2022-10-08T21:58:34.759Z,90.00
2022-10-08T22:01:01.320Z,90.08
2022-10-08T22:03:28.072Z,90.29
2022-10-08T22:05:59.676Z,90.50
2022-10-08T22:08:28.206Z,90.32
2022-10-08T22:10:55.566Z,90.53
2022-10-08T22:13:22.429Z,90.24
2022-10-08T22:15:58.141Z,91.21
2022-10-08T22:18:27.328Z,90.54
2022-10-08T22:20:53.964Z,90.39
2022-10-08T22:23:21.703Z,90.58
2022-10-08T22:25:54.965Z,91.29
2022-10-08T22:28:22.182Z,90.65
2022-10-08T22:30:49.192Z,90.66
2022-10-08T22:33:16.250Z,90.61
2022-10-08T22:35:43.496Z,90.70
2022-10-08T22:38:10.434Z,90.73
2022-10-08T22:40:37.131Z,90.50
2022-10-08T22:43:04.070Z,90.81
2022-10-08T22:45:30.720Z,90.73
2022-10-08T22:47:57.118Z,90.71
2022-10-08T22:50:23.473Z,90.72
2022-10-08T22:52:50.277Z,90.71
2022-10-08T22:55:17.460Z,91.01
2022-10-08T22:57:44.074Z,90.85
2022-10-08T23:00:11.319Z,91.04
2022-10-08T23:02:37.681Z,90.84
2022-10-08T23:05:04.491Z,90.99
2022-10-08T23:07:30.889Z,91.02
2022-10-08T23:09:57.669Z,90.58
2022-10-08T23:12:24.166Z,90.82
2022-10-08T23:14:50.611Z,91.07
2022-10-08T23:17:19.916Z,91.04
2022-10-08T23:19:46.363Z,91.54
2022-10-08T23:22:12.735Z,91.55
2022-10-08T23:24:39.195Z,91.65
2022-10-08T23:27:09.474Z,91.68
2022-10-08T23:29:36.242Z,91.82
2022-10-08T23:32:02.669Z,91.46
2022-10-08T23:34:29.101Z,91.41
2022-10-08T23:36:55.538Z,90.99
2022-10-08T23:39:22.087Z,90.88
2022-10-08T23:41:48.539Z,90.93
2022-10-08T23:44:15.062Z,90.74
2022-10-08T23:46:41.517Z,90.23
2022-10-08T23:49:08.035Z,90.30
2022-10-08T23:51:34.471Z,89.91
2022-10-08T23:54:03.774Z,89.99
2022-10-08T23:56:30.607Z,89.66
2022-10-08T23:58:57.887Z,89.48
